Time;durP1;ratioP1;P1;durP2;ratioP2;P2;SDS_P1;SDS_P2;PMS_P1;PMS_P2;Temp;Humidity;BMP_temperature;BMP_pressure;BME280_temperature;BME280_humidity;BME280_pressure;Samples;Min_cycle;Max_cycle;Signal;HPM_P1;HPM_P2
2022/12/13 07:41:35;;;;;;;123.55;33.78;;;;;;;-1.46;100.00;100081.86;1809647;76;80779;-88
2022/12/13 07:44:19;;;;;;;134.27;38.40;;;;;;;-1.45;100.00;100087.55;1649241;83;21088;-89
2022/12/13 07:47:05;;;;;;;121.35;36.73;;;;;;;-1.33;100.00;100104.64;1642991;83;21637;-87
2022/12/13 07:49:50;;;;;;;127.58;38.80;;;;;;;-1.11;100.00;100108.41;1658948;84;21514;-88
2022/12/13 07:52:35;;;;;;;124.00;36.58;;;;;;;-0.88;100.00;100110.58;1682203;84;21451;-89
2022/12/13 07:55:20;;;;;;;127.32;36.90;;;;;;;-0.72;100.00;100106.58;1658997;84;21175;-89
2022/12/13 07:58:08;;;;;;;99.90;34.65;;;;;;;-0.65;100.00;100106.03;1663276;84;21820;-91
2022/12/13 08:00:53;;;;;;;121.28;36.40;;;;;;;-0.60;100.00;100107.55;1670520;85;21050;-88
2022/12/13 08:03:38;;;;;;;108.42;39.35;;;;;;;-0.47;100.00;100100.79;1633920;85;21056;-90
2022/12/13 08:06:23;;;;;;;169.13;56.85;;;;;;;-0.33;100.00;100098.02;1656212;85;21121;-88
2022/12/13 08:09:08;;;;;;;162.35;52.48;;;;;;;-0.28;100.00;100100.87;1663458;84;21062;-89
2022/12/13 08:11:52;;;;;;;114.65;38.92;;;;;;;-0.32;100.00;100092.93;1665694;84;21374;-87
2022/12/13 08:14:37;;;;;;;89.87;28.25;;;;;;;-0.26;100.00;100096.11;1672851;84;21012;-90
2022/12/13 08:17:21;;;;;;;88.30;27.30;;;;;;;-0.13;100.00;100096.01;1660864;84;21012;-90
2022/12/13 08:20:07;;;;;;;84.00;26.07;;;;;;;-0.10;100.00;100084.85;1647505;85;21055;-89
2022/12/13 08:22:56;;;;;;;76.02;25.37;;;;;;;-0.08;100.00;100083.27;1657964;85;21086;-89
2022/12/13 08:25:40;;;;;;;76.20;27.30;;;;;;;-0.04;100.00;100085.30;1636220;84;21047;-88
2022/12/13 08:28:27;;;;;;;75.65;25.35;;;;;;;0.02;100.00;100079.57;1636159;85;21042;-89
2022/12/13 08:31:13;;;;;;;81.25;26.57;;;;;;;0.11;100.00;100077.45;1647433;85;21135;-90
2022/12/13 08:33:58;;;;;;;78.10;24.25;;;;;;;0.16;100.00;100070.89;1650139;84;21084;-91
2022/12/13 08:36:42;;;;;;;77.30;27.15;;;;;;;0.23;100.00;100062.25;1648396;85;21035;-90
2022/12/13 08:39:26;;;;;;;80.35;26.35;;;;;;;0.25;100.00;100053.45;1643408;84;21115;-89
2022/12/13 08:42:16;;;;;;;93.37;26.45;;;;;;;0.14;100.00;100050.13;1660197;84;20974;-89
2022/12/13 08:45:00;;;;;;;82.40;26.12;;;;;;;0.14;100.00;100035.35;1654278;85;21054;-90
2022/12/13 08:47:45;;;;;;;88.12;28.20;;;;;;;0.10;100.00;100030.95;1654844;84;21025;-90
2022/12/13 08:50:30;;;;;;;72.50;24.27;;;;;;;0.10;100.00;100038.16;1670883;84;21032;-91
2022/12/13 08:53:14;;;;;;;82.05;25.57;;;;;;;0.10;100.00;100032.30;1676094;83;21396;-89
2022/12/13 08:56:01;;;;;;;79.95;26.10;;;;;;;0.13;100.00;100036.41;1651834;85;22348;-89
2022/12/13 08:58:50;;;;;;;102.00;32.53;;;;;;;0.15;100.00;100034.33;1651733;85;21145;-89
2022/12/13 09:01:35;;;;;;;81.75;27.77;;;;;;;0.15;100.00;100025.73;1613191;87;21217;-89
2022/12/13 09:04:22;;;;;;;83.80;25.12;;;;;;;0.15;100.00;100031.11;1657053;85;21037;-90
2022/12/13 09:07:07;;;;;;;87.97;25.10;;;;;;;0.14;100.00;100033.48;1671116;84;21535;-91
2022/12/13 09:09:52;;;;;;;75.70;24.95;;;;;;;0.17;100.00;100026.84;1676280;83;21491;-90
2022/12/13 09:12:42;;;;;;;72.25;24.15;;;;;;;0.19;100.00;100016.70;1676485;83;20999;-89
2022/12/13 09:15:27;;;;;;;80.45;25.45;;;;;;;0.17;100.00;100020.97;1661612;85;21494;-90
2022/12/13 09:18:13;;;;;;;71.72;23.32;;;;;;;0.13;100.00;100008.20;1656298;85;21006;-90
2022/12/13 09:20:58;;;;;;;95.17;29.27;;;;;;;0.14;100.00;100004.45;1665938;84;21097;-90
2022/12/13 09:23:43;;;;;;;75.97;26.30;;;;;;;0.17;100.00;100006.69;1676418;84;21023;-90
2022/12/13 09:26:28;;;;;;;75.70;25.27;;;;;;;0.18;100.00;99996.26;1675814;84;21050;-91
2022/12/13 09:29:15;;;;;;;81.40;28.05;;;;;;;0.19;100.00;99992.52;1655973;83;21059;-90
2022/12/13 09:32:01;;;;;;;76.97;24.12;;;;;;;0.21;100.00;99988.56;1663077;84;21015;-90
2022/12/13 09:34:46;;;;;;;89.20;28.98;;;;;;;0.27;100.00;99987.36;1656170;85;21032;-90
2022/12/13 09:37:31;;;;;;;87.70;29.20;;;;;;;0.20;100.00;99983.42;1668718;84;21105;-91
2022/12/13 09:40:20;;;;;;;86.78;28.87;;;;;;;0.15;100.00;99978.72;1666772;85;21068;-91
2022/12/13 09:43:05;;;;;;;80.10;25.97;;;;;;;0.11;100.00;99974.00;1634017;85;21141;-90
2022/12/13 09:45:50;;;;;;;87.82;31.48;;;;;;;0.09;100.00;99974.22;1665921;85;21057;-90
2022/12/13 09:48:34;;;;;;;91.70;29.48;;;;;;;0.11;100.00;99971.31;1676526;84;21058;-91
2022/12/13 09:51:19;;;;;;;85.03;26.50;;;;;;;0.10;100.00;99965.13;1654944;85;21037;-90
2022/12/13 09:54:04;;;;;;;71.17;27.30;;;;;;;0.08;100.00;99965.87;1669599;83;21074;-92
2022/12/13 09:56:51;;;;;;;81.15;26.82;;;;;;;0.09;100.00;99964.81;1674491;83;21097;-91
2022/12/13 09:59:36;;;;;;;75.97;25.40;;;;;;;0.13;100.00;99959.83;1662074;84;21085;-92
2022/12/13 10:02:24;;;;;;;77.92;24.50;;;;;;;0.15;100.00;99949.16;1661663;84;21036;-92
2022/12/13 10:05:23;;;;;;;73.33;24.70;;;;;;;0.18;100.00;99946.02;1655484;85;21012;-93
2022/12/13 10:08:18;;;;;;;78.02;24.37;;;;;;;0.18;100.00;99945.20;1654900;85;21022;-90
2022/12/13 10:11:03;;;;;;;61.88;22.75;;;;;;;0.17;100.00;99942.20;1664102;84;21436;-89
2022/12/13 10:13:59;;;;;;;73.83;24.77;;;;;;;0.13;100.00;99941.02;1667310;85;21046;-91
2022/12/13 10:16:49;;;;;;;74.53;26.97;;;;;;;0.09;100.00;99942.50;1675461;83;21075;-91
2022/12/13 10:19:40;;;;;;;60.98;25.00;;;;;;;0.08;100.00;99936.31;1670439;84;21092;-93
2022/12/13 10:22:24;;;;;;;63.55;24.80;;;;;;;0.01;100.00;99924.00;1675776;85;21008;-90
2022/12/13 10:25:09;;;;;;;58.50;22.85;;;;;;;0.02;100.00;99922.94;1654287;83;21009;-92
2022/12/13 13:41:57;;;;;;;93.07;27.62;;;;;;;-1.51;100.00;99898.10;1740021;81;21518;-89
2022/12/13 13:44:55;;;;;;;78.50;26.30;;;;;;;-1.22;100.00;99898.58;1737909;81;21010;-88
2022/12/13 13:47:40;;;;;;;67.25;23.05;;;;;;;-1.03;100.00;99888.25;1770980;80;21217;-88
2022/12/13 13:51:00;;;;;;;59.03;23.65;;;;;;;-0.96;100.00;99891.70;1784076;78;21477;-88
2022/12/13 13:54:20;;;;;;;52.27;20.60;;;;;;;-0.94;100.00;99886.11;1769896;78;21807;-89
2022/12/13 13:57:27;;;;;;;52.10;19.12;;;;;;;-0.84;100.00;99882.94;1769821;80;21100;-90
2022/12/13 14:00:21;;;;;;;48.52;18.05;;;;;;;-0.81;100.00;99885.20;1732353;80;21501;-89
2022/12/13 14:03:44;;;;;;;48.85;17.77;;;;;;;-0.70;100.00;99882.61;1730251;82;21085;-88
2022/12/13 14:06:50;;;;;;;47.63;18.43;;;;;;;-0.73;100.00;99889.77;1743367;81;21062;-88
2022/12/13 14:09:47;;;;;;;43.30;19.48;;;;;;;-0.67;100.00;99893.42;1765077;80;21560;-90
2022/12/13 14:13:06;;;;;;;38.40;18.87;;;;;;;-0.63;100.00;99895.17;1732357;80;21085;-90
2022/12/13 14:16:23;;;;;;;42.10;18.87;;;;;;;-0.61;100.00;99895.77;1762456;80;21746;-91
2022/12/13 14:19:35;;;;;;;54.42;22.65;;;;;;;-0.66;100.00;99891.88;1740268;80;21417;-91
2022/12/13 14:22:51;;;;;;;42.67;20.57;;;;;;;-0.65;100.00;99881.43;1741856;81;20996;-90
2022/12/13 14:25:44;;;;;;;40.48;18.67;;;;;;;-0.59;100.00;99886.46;1739880;81;21029;-91
2022/12/13 14:28:53;;;;;;;62.73;22.35;;;;;;;-0.60;100.00;99878.09;1716602;80;21053;-89
2022/12/13 14:31:45;;;;;;;48.20;21.27;;;;;;;-0.58;100.00;99877.36;1721159;81;21105;-92
2022/12/13 14:34:32;;;;;;;49.27;21.23;;;;;;;-0.53;100.00;99882.88;1717824;81;21053;-91
2022/12/13 14:37:31;;;;;;;48.95;18.23;;;;;;;-0.55;100.00;99880.13;1756685;79;21208;-91
2022/12/13 14:40:34;;;;;;;47.70;18.98;;;;;;;-0.60;100.00;99884.80;1733185;81;21385;-91
2022/12/13 14:43:25;;;;;;;46.65;20.32;;;;;;;-0.59;100.00;99886.46;1731752;81;21008;-90
2022/12/13 14:46:12;;;;;;;49.83;20.15;;;;;;;-0.61;100.00;99883.70;1788450;80;21500;-90
2022/12/13 14:48:59;;;;;;;53.95;23.45;;;;;;;-0.65;100.00;99884.12;1718917;81;22142;-91
2022/12/13 14:51:45;;;;;;;46.90;22.37;;;;;;;-0.65;100.00;99891.35;1771991;79;21029;-91
2022/12/13 14:54:39;;;;;;;54.05;24.07;;;;;;;-0.63;100.00;99888.45;1737163;81;21029;-91
2022/12/13 14:57:29;;;;;;;45.58;22.42;;;;;;;-0.64;100.00;99884.96;1714037;81;21155;-91
2022/12/13 15:00:28;;;;;;;45.25;22.00;;;;;;;-0.61;100.00;99886.38;1717041;81;21535;-91
2022/12/13 15:03:24;;;;;;;58.55;25.27;;;;;;;-0.59;100.00;99883.78;1708642;81;21027;-92
2022/12/13 15:06:10;;;;;;;52.00;23.87;;;;;;;-0.59;100.00;99882.44;1726512;83;20984;-91
2022/12/13 15:08:55;;;;;;;47.20;22.32;;;;;;;-0.57;100.00;99884.39;1711110;81;21810;-90
2022/12/13 15:11:42;;;;;;;47.33;22.73;;;;;;;-0.53;100.00;99892.80;1724720;81;21167;-92
2022/12/13 15:14:28;;;;;;;42.38;19.60;;;;;;;-0.53;100.00;99891.46;1729702;81;21010;-91
2022/12/13 15:17:35;;;;;;;40.92;18.57;;;;;;;-0.51;100.00;99895.57;1749429;80;21099;-90
2022/12/13 15:20:27;;;;;;;42.85;18.75;;;;;;;-0.49;100.00;99900.20;1727271;80;21509;-90
2022/12/13 15:23:33;;;;;;;45.52;19.25;;;;;;;-0.44;100.00;99899.02;1706338;81;21086;-91
2022/12/13 15:26:28;;;;;;;43.30;18.98;;;;;;;-0.42;100.00;99893.44;1746205;81;21598;-92
2022/12/13 15:29:14;;;;;;;46.18;19.60;;;;;;;-0.44;100.00;99892.30;1717924;83;22061;-89
2022/12/13 15:31:59;;;;;;;43.65;19.52;;;;;;;-0.45;100.00;99897.36;1731030;81;21052;-90
2022/12/13 15:34:48;;;;;;;40.80;16.90;;;;;;;-0.44;100.00;99888.28;1712488;81;21013;-89
2022/12/13 15:37:34;;;;;;;44.13;18.20;;;;;;;-0.41;100.00;99896.94;1742804;81;21372;-90
2022/12/13 15:40:24;;;;;;;38.15;18.92;;;;;;;-0.40;100.00;99903.94;1735538;81;21069;-90
2022/12/13 15:43:16;;;;;;;33.92;13.83;;;;;;;-0.34;100.00;99908.44;1725848;81;21001;-90
2022/12/13 15:46:01;;;;;;;39.05;16.45;;;;;;;-0.45;100.00;99905.41;1744477;81;20978;-89
2022/12/13 15:48:49;;;;;;;36.50;16.00;;;;;;;-0.40;100.00;99913.33;1740736;81;20988;-89
2022/12/13 15:51:34;;;;;;;36.83;15.55;;;;;;;-0.49;100.00;99908.25;1705268;82;21017;-90
2022/12/13 15:54:27;;;;;;;50.25;18.12;;;;;;;-0.53;100.00;99911.06;1727128;81;20997;-89
2022/12/13 15:57:17;;;;;;;37.63;15.72;;;;;;;-0.42;100.00;99906.02;1734257;81;21534;-89
